sensor_id;sensor_type;location;lat;lon;timestamp;P1;durP1;ratioP1;P2;durP2;ratioP2
75851;SDS011;64500;52.632;20.656;2023-03-01T00:01:04;72.00;;;31.20;;
75851;SDS011;64500;52.632;20.656;2023-03-01T00:03:35;70.60;;;31.40;;
75851;SDS011;64500;52.632;20.656;2023-03-01T00:06:03;66.60;;;30.90;;
75851;SDS011;64500;52.632;20.656;2023-03-01T00:08:32;79.90;;;36.20;;
75851;SDS011;64500;52.632;20.656;2023-03-01T00:13:39;70.70;;;30.80;;
75851;SDS011;64500;52.632;20.656;2023-03-01T00:16:08;61.80;;;31.40;;
75851;SDS011;64500;52.632;20.656;2023-03-01T00:18:37;64.90;;;30.10;;
75851;SDS011;64500;52.632;20.656;2023-03-01T00:21:04;65.60;;;31.80;;
75851;SDS011;64500;52.632;20.656;2023-03-01T00:23:33;64.40;;;29.20;;
75851;SDS011;64500;52.632;20.656;2023-03-01T00:26:01;68.00;;;31.20;;
75851;SDS011;64500;52.632;20.656;2023-03-01T00:28:33;74.00;;;34.30;;
75851;SDS011;64500;52.632;20.656;2023-03-01T00:31:05;72.30;;;32.40;;
75851;SDS011;64500;52.632;20.656;2023-03-01T00:33:33;66.10;;;31.20;;
75851;SDS011;64500;52.632;20.656;2023-03-01T00:36:01;75.20;;;33.50;;
75851;SDS011;64500;52.632;20.656;2023-03-01T00:38:28;65.40;;;31.80;;
75851;SDS011;64500;52.632;20.656;2023-03-01T00:41:02;71.10;;;31.30;;
75851;SDS011;64500;52.632;20.656;2023-03-01T00:43:33;66.00;;;31.20;;
75851;SDS011;64500;52.632;20.656;2023-03-01T00:46:03;65.10;;;30.90;;
75851;SDS011;64500;52.632;20.656;2023-03-01T00:48:35;62.70;;;30.20;;
75851;SDS011;64500;52.632;20.656;2023-03-01T00:51:06;66.30;;;30.70;;
75851;SDS011;64500;52.632;20.656;2023-03-01T00:53:36;67.20;;;29.60;;
75851;SDS011;64500;52.632;20.656;2023-03-01T00:56:04;63.60;;;29.10;;
75851;SDS011;64500;52.632;20.656;2023-03-01T00:58:33;66.70;;;30.20;;
75851;SDS011;64500;52.632;20.656;2023-03-01T01:01:00;62.70;;;29.20;;
75851;SDS011;64500;52.632;20.656;2023-03-01T01:03:33;63.40;;;28.00;;
75851;SDS011;64500;52.632;20.656;2023-03-01T01:06:00;68.90;;;30.70;;
75851;SDS011;64500;52.632;20.656;2023-03-01T01:08:37;64.90;;;30.50;;
75851;SDS011;64500;52.632;20.656;2023-03-01T01:11:04;61.20;;;30.50;;
75851;SDS011;64500;52.632;20.656;2023-03-01T01:13:31;63.60;;;29.60;;
75851;SDS011;64500;52.632;20.656;2023-03-01T01:16:01;67.20;;;30.40;;
75851;SDS011;64500;52.632;20.656;2023-03-01T01:18:28;64.10;;;30.70;;
75851;SDS011;64500;52.632;20.656;2023-03-01T01:20:56;65.10;;;29.50;;
75851;SDS011;64500;52.632;20.656;2023-03-01T01:23:23;62.00;;;31.10;;
75851;SDS011;64500;52.632;20.656;2023-03-01T01:25:50;64.10;;;30.20;;
75851;SDS011;64500;52.632;20.656;2023-03-01T01:28:17;65.80;;;30.60;;
75851;SDS011;64500;52.632;20.656;2023-03-01T01:30:44;67.00;;;29.80;;
75851;SDS011;64500;52.632;20.656;2023-03-01T01:33:11;62.20;;;28.00;;
75851;SDS011;64500;52.632;20.656;2023-03-01T01:35:38;61.50;;;28.50;;
75851;SDS011;64500;52.632;20.656;2023-03-01T01:38:05;59.50;;;29.00;;
75851;SDS011;64500;52.632;20.656;2023-03-01T01:40:32;60.50;;;28.80;;
75851;SDS011;64500;52.632;20.656;2023-03-01T01:43:00;58.10;;;27.90;;
75851;SDS011;64500;52.632;20.656;2023-03-01T01:48:04;62.60;;;29.40;;
75851;SDS011;64500;52.632;20.656;2023-03-01T01:50:37;64.50;;;29.20;;
75851;SDS011;64500;52.632;20.656;2023-03-01T01:53:12;63.30;;;29.40;;
75851;SDS011;64500;52.632;20.656;2023-03-01T01:55:47;65.10;;;28.10;;
75851;SDS011;64500;52.632;20.656;2023-03-01T01:58:20;58.60;;;28.30;;
75851;SDS011;64500;52.632;20.656;2023-03-01T02:00:48;59.70;;;27.50;;
75851;SDS011;64500;52.632;20.656;2023-03-01T02:03:26;66.40;;;29.60;;
75851;SDS011;64500;52.632;20.656;2023-03-01T02:08:57;60.60;;;29.10;;
75851;SDS011;64500;52.632;20.656;2023-03-01T02:11:33;62.70;;;29.40;;
75851;SDS011;64500;52.632;20.656;2023-03-01T02:14:04;62.60;;;31.00;;
75851;SDS011;64500;52.632;20.656;2023-03-01T02:16:31;68.50;;;29.90;;
75851;SDS011;64500;52.632;20.656;2023-03-01T02:18:59;61.00;;;29.20;;
75851;SDS011;64500;52.632;20.656;2023-03-01T02:21:38;65.20;;;31.40;;
75851;SDS011;64500;52.632;20.656;2023-03-01T02:27:03;64.10;;;29.10;;
75851;SDS011;64500;52.632;20.656;2023-03-01T02:29:31;54.10;;;27.80;;
75851;SDS011;64500;52.632;20.656;2023-03-01T02:31:59;57.90;;;28.60;;
75851;SDS011;64500;52.632;20.656;2023-03-01T02:34:28;57.70;;;28.80;;
75851;SDS011;64500;52.632;20.656;2023-03-01T02:37:03;66.30;;;29.20;;
75851;SDS011;64500;52.632;20.656;2023-03-01T02:39:39;61.30;;;29.60;;
75851;SDS011;64500;52.632;20.656;2023-03-01T02:42:12;63.40;;;29.10;;
75851;SDS011;64500;52.632;20.656;2023-03-01T02:44:42;57.60;;;27.40;;
75851;SDS011;64500;52.632;20.656;2023-03-01T02:47:10;58.90;;;26.70;;
75851;SDS011;64500;52.632;20.656;2023-03-01T02:49:37;62.00;;;29.60;;
75851;SDS011;64500;52.632;20.656;2023-03-01T02:54:47;59.40;;;28.50;;
75851;SDS011;64500;52.632;20.656;2023-03-01T02:57:20;66.40;;;30.50;;
75851;SDS011;64500;52.632;20.656;2023-03-01T02:59:48;65.10;;;31.10;;
75851;SDS011;64500;52.632;20.656;2023-03-01T03:05:09;58.30;;;29.50;;
75851;SDS011;64500;52.632;20.656;2023-03-01T03:07:40;63.20;;;29.80;;
75851;SDS011;64500;52.632;20.656;2023-03-01T03:10:10;60.90;;;28.50;;
75851;SDS011;64500;52.632;20.656;2023-03-01T03:12:49;59.70;;;27.50;;
75851;SDS011;64500;52.632;20.656;2023-03-01T03:15:18;62.40;;;28.10;;
75851;SDS011;64500;52.632;20.656;2023-03-01T03:17:46;56.90;;;27.30;;
75851;SDS011;64500;52.632;20.656;2023-03-01T03:20:16;56.30;;;27.50;;
75851;SDS011;64500;52.632;20.656;2023-03-01T03:25:16;58.70;;;25.60;;
75851;SDS011;64500;52.632;20.656;2023-03-01T03:27:44;58.20;;;28.20;;
75851;SDS011;64500;52.632;20.656;2023-03-01T03:30:14;53.10;;;27.30;;
75851;SDS011;64500;52.632;20.656;2023-03-01T03:32:44;59.40;;;27.10;;
75851;SDS011;64500;52.632;20.656;2023-03-01T03:35:19;60.60;;;28.60;;
75851;SDS011;64500;52.632;20.656;2023-03-01T03:37:48;58.00;;;28.90;;
75851;SDS011;64500;52.632;20.656;2023-03-01T03:40:33;55.60;;;27.40;;
75851;SDS011;64500;52.632;20.656;2023-03-01T03:43:03;58.20;;;29.00;;
75851;SDS011;64500;52.632;20.656;2023-03-01T03:45:33;57.80;;;26.10;;
75851;SDS011;64500;52.632;20.656;2023-03-01T03:48:01;60.10;;;27.50;;
75851;SDS011;64500;52.632;20.656;2023-03-01T03:50:30;57.20;;;28.50;;
75851;SDS011;64500;52.632;20.656;2023-03-01T03:52:57;60.60;;;28.20;;
75851;SDS011;64500;52.632;20.656;2023-03-01T03:55:26;60.30;;;29.30;;
75851;SDS011;64500;52.632;20.656;2023-03-01T03:57:57;54.30;;;26.30;;
75851;SDS011;64500;52.632;20.656;2023-03-01T04:00:28;60.70;;;28.80;;
75851;SDS011;64500;52.632;20.656;2023-03-01T04:02:55;66.30;;;31.80;;
75851;SDS011;64500;52.632;20.656;2023-03-01T04:05:23;56.30;;;29.50;;
75851;SDS011;64500;52.632;20.656;2023-03-01T04:07:50;71.50;;;31.90;;
75851;SDS011;64500;52.632;20.656;2023-03-01T04:10:31;62.90;;;29.50;;
75851;SDS011;64500;52.632;20.656;2023-03-01T04:13:04;54.60;;;27.70;;
75851;SDS011;64500;52.632;20.656;2023-03-01T04:15:33;61.10;;;27.70;;
75851;SDS011;64500;52.632;20.656;2023-03-01T04:18:03;64.60;;;31.50;;
75851;SDS011;64500;52.632;20.656;2023-03-01T04:20:32;62.30;;;29.40;;
75851;SDS011;64500;52.632;20.656;2023-03-01T04:23:03;57.10;;;27.20;;
75851;SDS011;64500;52.632;20.656;2023-03-01T04:25:40;66.90;;;30.30;;
75851;SDS011;64500;52.632;20.656;2023-03-01T04:30:51;61.40;;;30.10;;
75851;SDS011;64500;52.632;20.656;2023-03-01T04:33:19;63.80;;;28.60;;
75851;SDS011;64500;52.632;20.656;2023-03-01T04:35:46;66.40;;;28.20;;
75851;SDS011;64500;52.632;20.656;2023-03-01T04:38:17;54.50;;;27.60;;
75851;SDS011;64500;52.632;20.656;2023-03-01T04:40:45;57.80;;;27.90;;
75851;SDS011;64500;52.632;20.656;2023-03-01T04:43:12;65.20;;;28.80;;
75851;SDS011;64500;52.632;20.656;2023-03-01T04:45:41;59.00;;;29.10;;
75851;SDS011;64500;52.632;20.656;2023-03-01T04:48:08;64.50;;;29.80;;
75851;SDS011;64500;52.632;20.656;2023-03-01T04:50:35;66.10;;;28.70;;
75851;SDS011;64500;52.632;20.656;2023-03-01T04:53:02;62.10;;;28.50;;
75851;SDS011;64500;52.632;20.656;2023-03-01T04:55:29;64.00;;;30.80;;
75851;SDS011;64500;52.632;20.656;2023-03-01T04:57:57;69.10;;;31.30;;
75851;SDS011;64500;52.632;20.656;2023-03-01T05:00:24;61.20;;;29.60;;
75851;SDS011;64500;52.632;20.656;2023-03-01T05:02:55;60.80;;;28.60;;
75851;SDS011;64500;52.632;20.656;2023-03-01T05:05:30;60.90;;;29.10;;
75851;SDS011;64500;52.632;20.656;2023-03-01T05:08:03;63.70;;;29.10;;
75851;SDS011;64500;52.632;20.656;2023-03-01T05:10:34;58.00;;;28.00;;
75851;SDS011;64500;52.632;20.656;2023-03-01T05:13:02;53.90;;;26.90;;
75851;SDS011;64500;52.632;20.656;2023-03-01T05:15:30;59.30;;;29.20;;
75851;SDS011;64500;52.632;20.656;2023-03-01T05:17:59;60.20;;;29.30;;
75851;SDS011;64500;52.632;20.656;2023-03-01T05:20:26;55.10;;;27.70;;
75851;SDS011;64500;52.632;20.656;2023-03-01T05:22:56;55.30;;;26.60;;
75851;SDS011;64500;52.632;20.656;2023-03-01T05:25:34;56.50;;;26.60;;
75851;SDS011;64500;52.632;20.656;2023-03-01T05:28:07;59.50;;;28.40;;
75851;SDS011;64500;52.632;20.656;2023-03-01T05:30:38;54.70;;;28.10;;
75851;SDS011;64500;52.632;20.656;2023-03-01T05:33:06;54.50;;;27.80;;
75851;SDS011;64500;52.632;20.656;2023-03-01T05:35:40;57.20;;;26.80;;
75851;SDS011;64500;52.632;20.656;2023-03-01T05:38:09;56.30;;;27.60;;
75851;SDS011;64500;52.632;20.656;2023-03-01T05:40:40;58.20;;;28.30;;
75851;SDS011;64500;52.632;20.656;2023-03-01T05:43:11;56.70;;;27.60;;
75851;SDS011;64500;52.632;20.656;2023-03-01T05:45:39;63.10;;;29.50;;
75851;SDS011;64500;52.632;20.656;2023-03-01T05:48:07;60.70;;;28.30;;
75851;SDS011;64500;52.632;20.656;2023-03-01T05:50:37;64.70;;;28.50;;
75851;SDS011;64500;52.632;20.656;2023-03-01T05:53:18;57.50;;;27.10;;
75851;SDS011;64500;52.632;20.656;2023-03-01T05:55:49;68.10;;;29.20;;
75851;SDS011;64500;52.632;20.656;2023-03-01T05:58:19;56.10;;;27.90;;
75851;SDS011;64500;52.632;20.656;2023-03-01T06:00:47;58.60;;;28.20;;
75851;SDS011;64500;52.632;20.656;2023-03-01T06:03:15;62.10;;;28.90;;
75851;SDS011;64500;52.632;20.656;2023-03-01T06:05:44;56.70;;;27.80;;
75851;SDS011;64500;52.632;20.656;2023-03-01T06:08:11;54.80;;;27.50;;
75851;SDS011;64500;52.632;20.656;2023-03-01T06:10:39;58.40;;;27.70;;
75851;SDS011;64500;52.632;20.656;2023-03-01T06:13:07;59.10;;;27.20;;
75851;SDS011;64500;52.632;20.656;2023-03-01T06:15:34;64.20;;;28.20;;
75851;SDS011;64500;52.632;20.656;2023-03-01T06:18:01;62.70;;;28.90;;
75851;SDS011;64500;52.632;20.656;2023-03-01T06:20:28;57.50;;;28.60;;
75851;SDS011;64500;52.632;20.656;2023-03-01T06:22:55;58.30;;;26.70;;
75851;SDS011;64500;52.632;20.656;2023-03-01T06:25:23;56.90;;;27.30;;
75851;SDS011;64500;52.632;20.656;2023-03-01T06:27:51;53.20;;;25.40;;
75851;SDS011;64500;52.632;20.656;2023-03-01T06:30:19;54.50;;;27.40;;
75851;SDS011;64500;52.632;20.656;2023-03-01T06:32:47;52.70;;;26.90;;
75851;SDS011;64500;52.632;20.656;2023-03-01T06:35:15;58.70;;;26.20;;
75851;SDS011;64500;52.632;20.656;2023-03-01T06:37:46;52.60;;;26.50;;
75851;SDS011;64500;52.632;20.656;2023-03-01T06:40:14;56.70;;;27.30;;
75851;SDS011;64500;52.632;20.656;2023-03-01T06:42:43;54.80;;;27.00;;
75851;SDS011;64500;52.632;20.656;2023-03-01T06:45:15;56.10;;;27.60;;
75851;SDS011;64500;52.632;20.656;2023-03-01T06:47:43;50.50;;;26.80;;
75851;SDS011;64500;52.632;20.656;2023-03-01T06:50:10;55.00;;;26.60;;
75851;SDS011;64500;52.632;20.656;2023-03-01T06:52:39;60.20;;;28.20;;
75851;SDS011;64500;52.632;20.656;2023-03-01T06:55:06;57.10;;;26.30;;
75851;SDS011;64500;52.632;20.656;2023-03-01T06:57:33;56.80;;;27.90;;
75851;SDS011;64500;52.632;20.656;2023-03-01T07:00:00;54.50;;;26.60;;
75851;SDS011;64500;52.632;20.656;2023-03-01T07:02:28;51.50;;;27.00;;
75851;SDS011;64500;52.632;20.656;2023-03-01T07:04:55;62.40;;;28.70;;
75851;SDS011;64500;52.632;20.656;2023-03-01T07:07:22;60.00;;;27.40;;
75851;SDS011;64500;52.632;20.656;2023-03-01T07:09:49;58.40;;;26.90;;
75851;SDS011;64500;52.632;20.656;2023-03-01T07:12:16;54.20;;;26.60;;
75851;SDS011;64500;52.632;20.656;2023-03-01T07:14:43;52.30;;;26.90;;
75851;SDS011;64500;52.632;20.656;2023-03-01T07:17:11;49.30;;;25.60;;
75851;SDS011;64500;52.632;20.656;2023-03-01T07:19:38;57.50;;;27.90;;
75851;SDS011;64500;52.632;20.656;2023-03-01T07:22:05;55.80;;;26.40;;
75851;SDS011;64500;52.632;20.656;2023-03-01T07:24:34;55.80;;;27.60;;
75851;SDS011;64500;52.632;20.656;2023-03-01T07:27:01;50.00;;;26.30;;
75851;SDS011;64500;52.632;20.656;2023-03-01T07:29:28;47.20;;;24.30;;
75851;SDS011;64500;52.632;20.656;2023-03-01T07:31:55;48.80;;;24.00;;
75851;SDS011;64500;52.632;20.656;2023-03-01T07:34:22;52.30;;;25.90;;
75851;SDS011;64500;52.632;20.656;2023-03-01T07:36:49;47.30;;;25.00;;
75851;SDS011;64500;52.632;20.656;2023-03-01T07:39:16;55.50;;;25.40;;
75851;SDS011;64500;52.632;20.656;2023-03-01T07:41:42;51.50;;;25.50;;
75851;SDS011;64500;52.632;20.656;2023-03-01T07:44:09;48.00;;;23.60;;
75851;SDS011;64500;52.632;20.656;2023-03-01T07:46:37;44.60;;;23.70;;
75851;SDS011;64500;52.632;20.656;2023-03-01T07:49:04;49.30;;;23.00;;
75851;SDS011;64500;52.632;20.656;2023-03-01T07:51:31;48.40;;;23.00;;
75851;SDS011;64500;52.632;20.656;2023-03-01T07:53:58;44.00;;;23.50;;
75851;SDS011;64500;52.632;20.656;2023-03-01T07:56:25;45.30;;;22.00;;
75851;SDS011;64500;52.632;20.656;2023-03-01T07:58:52;40.70;;;21.60;;
75851;SDS011;64500;52.632;20.656;2023-03-01T08:01:20;42.10;;;21.20;;
75851;SDS011;64500;52.632;20.656;2023-03-01T08:03:48;38.40;;;20.80;;
75851;SDS011;64500;52.632;20.656;2023-03-01T08:06:15;44.50;;;23.40;;
75851;SDS011;64500;52.632;20.656;2023-03-01T08:08:44;43.70;;;21.20;;
75851;SDS011;64500;52.632;20.656;2023-03-01T08:11:12;44.00;;;20.20;;
75851;SDS011;64500;52.632;20.656;2023-03-01T08:13:43;40.00;;;20.40;;
75851;SDS011;64500;52.632;20.656;2023-03-01T08:16:11;37.10;;;20.30;;
75851;SDS011;64500;52.632;20.656;2023-03-01T08:18:39;43.00;;;21.60;;
75851;SDS011;64500;52.632;20.656;2023-03-01T08:21:08;36.70;;;19.50;;
75851;SDS011;64500;52.632;20.656;2023-03-01T08:23:39;42.10;;;21.60;;
75851;SDS011;64500;52.632;20.656;2023-03-01T08:26:13;37.50;;;21.10;;
75851;SDS011;64500;52.632;20.656;2023-03-01T08:28:41;38.90;;;21.60;;
75851;SDS011;64500;52.632;20.656;2023-03-01T08:31:16;35.20;;;19.40;;
75851;SDS011;64500;52.632;20.656;2023-03-01T08:33:47;39.10;;;20.70;;
75851;SDS011;64500;52.632;20.656;2023-03-01T08:36:17;38.00;;;19.50;;
75851;SDS011;64500;52.632;20.656;2023-03-01T08:38:46;40.30;;;20.70;;
75851;SDS011;64500;52.632;20.656;2023-03-01T08:41:13;40.30;;;20.70;;
75851;SDS011;64500;52.632;20.656;2023-03-01T08:43:41;38.00;;;19.60;;
75851;SDS011;64500;52.632;20.656;2023-03-01T08:46:08;36.60;;;19.90;;
75851;SDS011;64500;52.632;20.656;2023-03-01T08:48:35;39.60;;;20.20;;
75851;SDS011;64500;52.632;20.656;2023-03-01T08:51:13;44.70;;;21.20;;
75851;SDS011;64500;52.632;20.656;2023-03-01T08:53:42;35.70;;;18.00;;
75851;SDS011;64500;52.632;20.656;2023-03-01T08:56:10;35.90;;;18.70;;
75851;SDS011;64500;52.632;20.656;2023-03-01T08:58:37;35.90;;;18.10;;
75851;SDS011;64500;52.632;20.656;2023-03-01T09:01:06;40.50;;;18.70;;
75851;SDS011;64500;52.632;20.656;2023-03-01T09:03:37;40.80;;;18.90;;
75851;SDS011;64500;52.632;20.656;2023-03-01T09:06:04;44.70;;;20.10;;
75851;SDS011;64500;52.632;20.656;2023-03-01T09:08:34;38.60;;;20.50;;
75851;SDS011;64500;52.632;20.656;2023-03-01T09:11:03;34.50;;;18.70;;
75851;SDS011;64500;52.632;20.656;2023-03-01T09:13:32;38.00;;;19.20;;
75851;SDS011;64500;52.632;20.656;2023-03-01T09:16:00;32.10;;;17.50;;
75851;SDS011;64500;52.632;20.656;2023-03-01T09:18:29;34.20;;;17.70;;
75851;SDS011;64500;52.632;20.656;2023-03-01T09:21:04;33.80;;;17.70;;
75851;SDS011;64500;52.632;20.656;2023-03-01T09:23:34;35.90;;;18.80;;
75851;SDS011;64500;52.632;20.656;2023-03-01T09:26:08;35.90;;;19.00;;
75851;SDS011;64500;52.632;20.656;2023-03-01T09:28:37;33.50;;;18.40;;
75851;SDS011;64500;52.632;20.656;2023-03-01T09:31:05;40.00;;;19.60;;
75851;SDS011;64500;52.632;20.656;2023-03-01T09:33:32;35.10;;;16.70;;
75851;SDS011;64500;52.632;20.656;2023-03-01T09:36:01;34.10;;;18.00;;
75851;SDS011;64500;52.632;20.656;2023-03-01T09:38:30;33.80;;;17.10;;
75851;SDS011;64500;52.632;20.656;2023-03-01T09:40:58;33.40;;;16.80;;
75851;SDS011;64500;52.632;20.656;2023-03-01T09:43:44;30.90;;;16.60;;
75851;SDS011;64500;52.632;20.656;2023-03-01T09:46:15;31.70;;;17.20;;
75851;SDS011;64500;52.632;20.656;2023-03-01T09:48:52;32.40;;;17.50;;
75851;SDS011;64500;52.632;20.656;2023-03-01T09:51:29;31.20;;;16.90;;
75851;SDS011;64500;52.632;20.656;2023-03-01T09:54:03;33.00;;;17.50;;
75851;SDS011;64500;52.632;20.656;2023-03-01T09:56:44;43.00;;;20.50;;
75851;SDS011;64500;52.632;20.656;2023-03-01T10:08:30;36.60;;;19.60;;
75851;SDS011;64500;52.632;20.656;2023-03-01T10:11:03;38.30;;;20.30;;
75851;SDS011;64500;52.632;20.656;2023-03-01T10:16:18;38.60;;;18.60;;
75851;SDS011;64500;52.632;20.656;2023-03-01T10:18:53;32.30;;;16.40;;
75851;SDS011;64500;52.632;20.656;2023-03-01T10:21:26;29.70;;;16.40;;
75851;SDS011;64500;52.632;20.656;2023-03-01T10:23:56;36.90;;;17.70;;
75851;SDS011;64500;52.632;20.656;2023-03-01T10:26:54;33.30;;;17.70;;
75851;SDS011;64500;52.632;20.656;2023-03-01T10:29:34;34.50;;;17.00;;
75851;SDS011;64500;52.632;20.656;2023-03-01T10:32:09;33.60;;;17.40;;
75851;SDS011;64500;52.632;20.656;2023-03-01T10:34:37;34.00;;;17.30;;
75851;SDS011;64500;52.632;20.656;2023-03-01T10:37:12;36.40;;;19.00;;
75851;SDS011;64500;52.632;20.656;2023-03-01T10:39:58;36.20;;;19.10;;
75851;SDS011;64500;52.632;20.656;2023-03-01T10:42:46;35.10;;;19.70;;
75851;SDS011;64500;52.632;20.656;2023-03-01T10:47:43;36.30;;;19.50;;
75851;SDS011;64500;52.632;20.656;2023-03-01T10:50:18;36.50;;;19.40;;
75851;SDS011;64500;52.632;20.656;2023-03-01T10:53:01;34.50;;;19.20;;
75851;SDS011;64500;52.632;20.656;2023-03-01T10:58:16;37.80;;;18.50;;
75851;SDS011;64500;52.632;20.656;2023-03-01T11:00:47;35.10;;;19.70;;
75851;SDS011;64500;52.632;20.656;2023-03-01T11:03:16;34.20;;;19.70;;
75851;SDS011;64500;52.632;20.656;2023-03-01T11:08:38;38.60;;;20.70;;
75851;SDS011;64500;52.632;20.656;2023-03-01T11:13:32;35.40;;;18.60;;
75851;SDS011;64500;52.632;20.656;2023-03-01T11:18:33;34.90;;;18.00;;
75851;SDS011;64500;52.632;20.656;2023-03-01T11:21:00;35.40;;;19.50;;
75851;SDS011;64500;52.632;20.656;2023-03-01T11:23:29;37.60;;;18.00;;
75851;SDS011;64500;52.632;20.656;2023-03-01T11:26:01;31.60;;;18.00;;
75851;SDS011;64500;52.632;20.656;2023-03-01T11:28:31;30.20;;;16.70;;
75851;SDS011;64500;52.632;20.656;2023-03-01T11:33:37;33.50;;;17.90;;
75851;SDS011;64500;52.632;20.656;2023-03-01T11:36:19;30.00;;;17.40;;
75851;SDS011;64500;52.632;20.656;2023-03-01T11:39:13;31.70;;;17.90;;
75851;SDS011;64500;52.632;20.656;2023-03-01T11:41:52;30.00;;;16.50;;
75851;SDS011;64500;52.632;20.656;2023-03-01T11:44:29;28.90;;;16.60;;
75851;SDS011;64500;52.632;20.656;2023-03-01T11:47:05;31.10;;;17.20;;
75851;SDS011;64500;52.632;20.656;2023-03-01T11:55:19;30.90;;;17.40;;
75851;SDS011;64500;52.632;20.656;2023-03-01T12:00:42;33.00;;;18.60;;
75851;SDS011;64500;52.632;20.656;2023-03-01T12:17:44;34.20;;;18.50;;
75851;SDS011;64500;52.632;20.656;2023-03-01T12:20:32;27.20;;;15.70;;
75851;SDS011;64500;52.632;20.656;2023-03-01T12:26:02;28.20;;;17.20;;
75851;SDS011;64500;52.632;20.656;2023-03-01T12:48:16;28.00;;;16.00;;
75851;SDS011;64500;52.632;20.656;2023-03-01T12:50:52;31.80;;;17.40;;
75851;SDS011;64500;52.632;20.656;2023-03-01T12:56:00;30.60;;;17.60;;
75851;SDS011;64500;52.632;20.656;2023-03-01T12:58:34;28.10;;;17.30;;
75851;SDS011;64500;52.632;20.656;2023-03-01T13:01:26;29.80;;;17.40;;
75851;SDS011;64500;52.632;20.656;2023-03-01T13:04:21;29.10;;;16.90;;
